Running Water, South Dakota
Current Conditions -  °F | °C
As of 6:55 AM on Tuesday 21 Oct 2014 (Local Time) from KYKN Reporting Station
Clear Clear  
Wind Chill: 38°   Ceiling: Unl
Heat Index: 41°   Visibility: 5mi
Dew Point: 37°   Wind: 5mph
Humidity: 87%   Direction: 90°E
Pressure: 30.07"   Gusts: NA
Location:  42.8823°N, 97.9973°W
Report Text: KYKN 211155Z AUTO 09004KT 5SM CLR 05/03 A3007 RMK AO1 10070 20040 52003
Loading
Personal Weather Stations






























Interactive Weather Map New forecast layout! Learn more

10-Day Weather Forecast

Advertisements
Track Severe Weather on mobile